Monte Vista, Colorado
Current Conditions -  °F | °C
As of 8:10 PM on Tuesday 21 Oct 2014 (Local Time) from KRCV Reporting Station
Clear Clear  
Wind Chill: 46°   Ceiling: Unl
Heat Index: 50°   Visibility: 10mi
Dew Point: 35°   Wind: 9mph
Humidity: 56%   Direction: 280°W
Pressure: 30.15"   Gusts: NA
Location:  37.58°N, 106.15°W
Report Text: KRCV 220210Z AUTO 28008KT 10SM CLR 10/02 A3015 RMK AO2 T00980015
Loading
Personal Weather Stations






























Interactive Weather Map
Tropical Storm Tracking
New forecast layout! Learn more

10-Day Weather Forecast

Advertisements
Track Severe Weather on mobile